createdAt,value
2022-12-27T00:00:43.291Z,14.50
2022-12-27T00:03:49.890Z,13.60
2022-12-27T00:06:56.462Z,14.13
2022-12-27T00:10:03.272Z,13.50
2022-12-27T00:13:10.830Z,14.20
2022-12-27T00:16:25.665Z,16.62
2022-12-27T00:19:30.782Z,14.60
2022-12-27T00:22:31.764Z,13.45
2022-12-27T00:25:37.783Z,14.03
2022-12-27T00:28:45.902Z,14.40
2022-12-27T00:31:52.224Z,17.32
2022-12-27T00:35:00.305Z,17.05
2022-12-27T00:38:07.715Z,19.25
2022-12-27T00:41:12.743Z,18.57
2022-12-27T00:44:18.103Z,18.30
2022-12-27T00:47:24.507Z,18.27
2022-12-27T00:50:31.967Z,17.20
2022-12-27T00:53:38.005Z,17.90
2022-12-27T00:56:44.839Z,17.12
2022-12-27T00:59:50.384Z,18.20
2022-12-27T01:02:56.432Z,18.15
2022-12-27T01:06:03.686Z,22.50
2022-12-27T01:09:10.755Z,23.30
2022-12-27T01:12:16.936Z,16.67
2022-12-27T01:15:25.485Z,15.70
2022-12-27T01:18:31.251Z,14.58
2022-12-27T01:21:38.732Z,16.42
2022-12-27T01:24:47.341Z,16.40
2022-12-27T01:27:53.862Z,15.70
2022-12-27T01:30:59.226Z,18.02
2022-12-27T01:34:12.823Z,15.93
2022-12-27T01:37:19.052Z,16.97
2022-12-27T01:40:27.493Z,16.10
2022-12-27T01:43:33.268Z,17.25
2022-12-27T01:46:40.783Z,20.92
2022-12-27T01:49:46.913Z,20.50
2022-12-27T01:52:57.042Z,22.50
2022-12-27T01:56:11.237Z,20.48
2022-12-27T01:59:22.948Z,18.60
2022-12-27T02:02:28.856Z,20.17
2022-12-27T02:05:36.164Z,18.32
2022-12-27T02:09:24.164Z,19.37
2022-12-27T02:12:30.929Z,18.45
2022-12-27T02:15:37.070Z,14.60
2022-12-27T02:18:43.220Z,14.35
2022-12-27T02:22:27.570Z,15.32
2022-12-27T02:25:50.319Z,12.45
2022-12-27T02:29:26.332Z,11.12
2022-12-27T02:32:41.079Z,13.72
2022-12-27T02:35:55.219Z,11.97
2022-12-27T02:39:04.441Z,11.53
2022-12-27T02:42:28.399Z,11.65
2022-12-27T02:45:52.815Z,12.20
2022-12-27T02:49:28.119Z,13.88
2022-12-27T02:53:11.806Z,12.05
2022-12-27T02:57:02.910Z,13.35
2022-12-27T03:00:52.724Z,11.63
2022-12-27T03:04:48.581Z,13.95
2022-12-27T03:08:16.723Z,13.88
2022-12-27T03:11:42.123Z,14.28
2022-12-27T03:15:12.070Z,14.45
2022-12-27T03:18:30.053Z,13.40
2022-12-27T03:22:07.691Z,14.83
2022-12-27T03:25:34.154Z,15.53
2022-12-27T03:29:00.997Z,15.23
2022-12-27T03:32:30.738Z,19.67
2022-12-27T03:35:39.400Z,16.27
2022-12-27T03:38:44.598Z,19.70
2022-12-27T03:42:12.829Z,16.73
2022-12-27T03:45:23.280Z,17.48
2022-12-27T03:48:29.291Z,19.85
2022-12-27T03:51:36.471Z,16.25
2022-12-27T03:54:46.329Z,21.55
2022-12-27T03:57:54.005Z,18.67
2022-12-27T04:00:53.578Z,21.95
2022-12-27T04:03:45.871Z,19.65
2022-12-27T04:06:51.827Z,19.40
2022-12-27T04:10:15.720Z,18.23
2022-12-27T04:13:40.970Z,20.35
2022-12-27T04:17:04.539Z,18.82
2022-12-27T04:20:29.051Z,19.95
2022-12-27T04:23:53.514Z,20.35
2022-12-27T04:27:19.500Z,21.00
2022-12-27T04:30:43.472Z,23.67
2022-12-27T04:34:07.411Z,26.57
2022-12-27T04:37:14.074Z,22.25
2022-12-27T04:40:40.114Z,24.67
2022-12-27T04:44:06.407Z,26.55
2022-12-27T04:47:30.964Z,25.32
2022-12-27T04:51:02.594Z,25.25
2022-12-27T04:54:28.018Z,28.80
2022-12-27T04:57:33.434Z,27.48
2022-12-27T05:01:00.766Z,25.08
2022-12-27T05:04:08.240Z,26.12
2022-12-27T05:07:32.030Z,29.05
2022-12-27T05:10:56.239Z,26.20
2022-12-27T05:17:15.817Z,27.30
2022-12-27T05:20:22.425Z,28.47
2022-12-27T05:23:45.418Z,26.37
2022-12-27T05:26:51.641Z,28.65
2022-12-27T05:29:58.517Z,25.52
2022-12-27T05:33:07.457Z,25.37
2022-12-27T05:36:13.731Z,24.20
2022-12-27T05:39:20.374Z,24.60
2022-12-27T05:42:25.524Z,20.70
2022-12-27T05:45:30.318Z,24.10
2022-12-27T05:48:36.778Z,22.73
2022-12-27T05:51:42.591Z,22.32
2022-12-27T05:54:48.903Z,21.87
2022-12-27T05:57:54.750Z,19.42
2022-12-27T06:01:00.745Z,21.23
2022-12-27T06:04:06.667Z,20.40
2022-12-27T06:07:11.724Z,20.90
2022-12-27T06:10:18.175Z,19.87
2022-12-27T06:13:24.883Z,16.17
2022-12-27T06:16:30.535Z,16.50
2022-12-27T06:19:36.449Z,20.35
2022-12-27T06:22:42.298Z,15.23
2022-12-27T06:25:47.979Z,22.77
2022-12-27T06:28:56.406Z,15.85
2022-12-27T06:32:02.729Z,13.75
2022-12-27T06:35:10.992Z,14.18
2022-12-27T06:38:22.256Z,14.35
2022-12-27T06:41:29.647Z,14.95
2022-12-27T06:44:35.425Z,19.48
2022-12-27T06:47:41.799Z,14.38
2022-12-27T06:50:53.165Z,14.45
2022-12-27T06:53:59.478Z,14.38
2022-12-27T06:57:06.160Z,14.68
2022-12-27T07:00:14.215Z,16.37
2022-12-27T07:03:42.487Z,17.90
2022-12-27T07:06:55.324Z,14.90
2022-12-27T07:10:01.373Z,18.07
2022-12-27T07:13:06.547Z,14.53
2022-12-27T07:16:11.791Z,13.72
2022-12-27T07:19:23.760Z,13.58
2022-12-27T07:22:38.601Z,15.13
2022-12-27T07:25:51.007Z,13.95
2022-12-27T07:28:59.985Z,15.35
2022-12-27T07:32:07.998Z,14.98
2022-12-27T07:35:16.021Z,13.78
2022-12-27T07:38:24.524Z,14.78
2022-12-27T07:41:31.950Z,13.72
2022-12-27T07:44:38.131Z,17.00
2022-12-27T07:47:43.087Z,16.87
2022-12-27T07:50:53.682Z,19.98
2022-12-27T07:54:08.005Z,14.93
2022-12-27T07:57:29.762Z,18.67
2022-12-27T08:00:37.545Z,17.23
2022-12-27T08:03:43.314Z,15.60
2022-12-27T08:06:50.210Z,13.20
2022-12-27T08:09:59.599Z,14.28
2022-12-27T08:13:10.555Z,11.78
2022-12-27T08:16:17.679Z,14.20
2022-12-27T08:22:44.347Z,11.00
2022-12-27T08:25:52.634Z,12.45
2022-12-27T08:29:00.913Z,11.10
2022-12-27T08:32:22.409Z,13.08
2022-12-27T08:35:53.534Z,13.95
2022-12-27T08:39:09.664Z,10.98
2022-12-27T08:42:14.896Z,12.35
2022-12-27T08:45:22.158Z,20.15
2022-12-27T08:48:30.340Z,14.63
2022-12-27T08:51:41.289Z,11.33
2022-12-27T08:54:45.349Z,10.18
2022-12-27T08:57:51.515Z,9.80
2022-12-27T09:00:58.149Z,9.38
2022-12-27T09:04:03.510Z,11.40
2022-12-27T09:07:08.935Z,10.43
2022-12-27T09:10:15.445Z,10.85
2022-12-27T09:13:21.129Z,10.15
2022-12-27T09:16:30.871Z,10.15
2022-12-27T09:19:39.584Z,8.83
2022-12-27T09:22:44.928Z,9.20
2022-12-27T09:25:51.693Z,9.90
2022-12-27T09:28:59.309Z,13.25
2022-12-27T09:32:04.727Z,12.55
2022-12-27T09:35:12.541Z,7.95
2022-12-27T09:38:18.652Z,8.13
2022-12-27T09:45:11.677Z,11.18
2022-12-27T09:48:32.715Z,8.43
2022-12-27T09:51:44.741Z,9.15
2022-12-27T09:55:04.717Z,7.12
2022-12-27T09:58:13.838Z,7.90
2022-12-27T10:01:36.781Z,7.92
2022-12-27T10:05:18.437Z,8.15
2022-12-27T10:08:45.132Z,8.75
2022-12-27T10:12:20.344Z,7.33
2022-12-27T10:15:58.041Z,10.20
2022-12-27T10:19:29.313Z,8.35
2022-12-27T10:22:54.843Z,6.95
2022-12-27T10:26:02.393Z,7.37
2022-12-27T10:29:19.884Z,6.70
2022-12-27T10:32:28.372Z,7.92
2022-12-27T10:35:36.229Z,6.95
2022-12-27T10:38:47.384Z,7.83
2022-12-27T10:42:18.134Z,7.42
2022-12-27T10:45:51.276Z,6.00
2022-12-27T10:49:20.956Z,9.33
2022-12-27T10:52:36.257Z,12.53
2022-12-27T10:55:53.420Z,7.58
2022-12-27T10:59:03.308Z,7.83
2022-12-27T11:02:24.055Z,9.35
2022-12-27T11:05:39.915Z,6.35
2022-12-27T11:08:51.518Z,7.37
2022-12-27T11:11:59.060Z,7.17
2022-12-27T11:15:30.899Z,10.08
2022-12-27T11:18:37.075Z,8.18
2022-12-27T11:21:44.745Z,7.15
2022-12-27T11:24:52.572Z,6.95
2022-12-27T11:28:08.346Z,6.80
2022-12-27T11:31:33.204Z,6.78
2022-12-27T11:34:46.467Z,6.35
2022-12-27T11:37:55.237Z,7.45
2022-12-27T11:41:01.193Z,6.97
2022-12-27T11:44:15.851Z,7.25
2022-12-27T11:47:48.049Z,12.90
2022-12-27T11:51:05.793Z,8.18
2022-12-27T11:55:05.859Z,9.70
2022-12-27T11:58:34.380Z,10.23
2022-12-27T12:01:55.305Z,48.83
2022-12-27T12:05:27.229Z,13.53
2022-12-27T12:09:10.938Z,14.58
2022-12-27T12:12:37.810Z,20.15
2022-12-27T12:15:51.694Z,14.05
2022-12-27T12:19:20.265Z,10.43
2022-12-27T12:22:44.522Z,12.20
2022-12-27T12:26:25.419Z,9.23
2022-12-27T12:29:38.761Z,10.80
2022-12-27T12:33:06.328Z,9.35
2022-12-27T12:36:53.462Z,14.68
2022-12-27T12:40:31.116Z,18.50
2022-12-27T12:44:08.123Z,22.87
2022-12-27T12:47:41.256Z,13.20
2022-12-27T12:51:18.146Z,13.05
2022-12-27T12:55:00.446Z,17.85
2022-12-27T12:58:33.211Z,24.30
2022-12-27T13:01:51.171Z,21.73
2022-12-27T13:05:26.880Z,19.27
2022-12-27T13:08:56.422Z,17.60
2022-12-27T13:12:54.112Z,16.27
2022-12-27T13:16:36.079Z,18.70
2022-12-27T13:20:19.579Z,20.70
2022-12-27T13:27:02.505Z,39.58
2022-12-27T13:30:26.205Z,41.73
2022-12-27T13:33:43.853Z,24.23
2022-12-27T13:37:26.658Z,27.93
2022-12-27T13:40:58.155Z,33.33
2022-12-27T13:44:24.735Z,28.38
2022-12-27T13:47:50.621Z,38.23
2022-12-27T13:51:12.681Z,56.95
2022-12-27T13:54:57.360Z,103.53
2022-12-27T13:58:25.788Z,59.30
2022-12-27T14:01:45.284Z,32.88
2022-12-27T14:05:04.893Z,31.93
2022-12-27T14:09:01.302Z,29.65
2022-12-27T14:12:55.001Z,31.50
2022-12-27T14:16:28.350Z,61.95
2022-12-27T14:19:51.738Z,176.68
2022-12-27T14:23:10.513Z,38.63
2022-12-27T14:26:50.533Z,39.45
2022-12-27T14:30:43.583Z,44.45
2022-12-27T14:34:37.264Z,49.13
2022-12-27T14:38:33.579Z,38.45
2022-12-27T14:42:08.497Z,36.65
2022-12-27T14:45:31.123Z,34.53
2022-12-27T14:48:55.960Z,31.05
2022-12-27T14:52:19.948Z,32.25
2022-12-27T14:55:43.872Z,38.30
2022-12-27T14:59:02.331Z,33.92
2022-12-27T15:02:15.292Z,39.10
2022-12-27T15:05:59.879Z,50.30
2022-12-27T15:09:32.859Z,28.75
2022-12-27T15:13:16.859Z,32.38
2022-12-27T15:16:59.259Z,29.50
2022-12-27T15:20:26.134Z,29.40
2022-12-27T15:24:00.826Z,29.15
2022-12-27T15:27:31.817Z,32.53
2022-12-27T15:31:09.200Z,32.98
2022-12-27T15:35:02.838Z,32.30
2022-12-27T15:38:21.183Z,35.88
2022-12-27T15:41:38.749Z,37.80
2022-12-27T15:45:12.166Z,35.17
2022-12-27T15:48:46.101Z,41.95
2022-12-27T15:52:07.599Z,37.25
2022-12-27T15:55:43.592Z,42.50
2022-12-27T15:58:49.858Z,39.95
2022-12-27T16:01:55.440Z,44.67
2022-12-27T16:05:13.134Z,37.00
2022-12-27T16:08:27.090Z,38.85
2022-12-27T16:11:32.763Z,48.65
2022-12-27T16:14:44.385Z,40.20
2022-12-27T16:18:08.627Z,42.23
2022-12-27T16:21:30.522Z,45.00
2022-12-27T16:24:39.321Z,43.63
2022-12-27T16:27:47.285Z,42.38
2022-12-27T16:31:03.606Z,44.33
2022-12-27T16:34:10.985Z,58.02
2022-12-27T16:37:17.130Z,48.73
2022-12-27T16:40:55.524Z,48.15
2022-12-27T16:44:38.547Z,43.02
2022-12-27T16:48:13.101Z,44.95
2022-12-27T16:51:48.836Z,50.90
2022-12-27T16:55:21.346Z,42.53
2022-12-27T16:58:43.048Z,44.53
2022-12-27T17:02:02.471Z,61.75
2022-12-27T17:05:11.500Z,99.15
2022-12-27T17:08:28.961Z,77.58
2022-12-27T17:11:42.256Z,65.30
2022-12-27T17:14:50.999Z,68.97
2022-12-27T17:17:59.446Z,54.93
2022-12-27T17:21:11.947Z,55.90
2022-12-27T17:24:35.716Z,46.85
2022-12-27T17:28:00.876Z,60.63
2022-12-27T17:31:20.501Z,42.70
2022-12-27T17:34:43.909Z,48.13
2022-12-27T17:38:03.300Z,48.68
2022-12-27T17:41:57.956Z,47.20
2022-12-27T17:45:21.381Z,53.73
2022-12-27T17:51:44.513Z,51.55
2022-12-27T17:55:08.071Z,54.35
2022-12-27T17:58:18.474Z,60.48
2022-12-27T18:01:23.280Z,68.15
2022-12-27T18:04:38.508Z,52.30
2022-12-27T18:07:45.105Z,57.30
2022-12-27T18:10:52.946Z,51.88
2022-12-27T18:14:07.104Z,52.88
2022-12-27T18:17:14.497Z,53.02
2022-12-27T18:20:44.025Z,58.08
2022-12-27T18:24:00.227Z,43.58
2022-12-27T18:27:16.675Z,51.63
2022-12-27T18:30:25.816Z,52.35
2022-12-27T18:33:33.631Z,41.90
2022-12-27T18:36:56.147Z,52.58
2022-12-27T18:40:13.974Z,56.35
2022-12-27T18:43:22.769Z,55.88
2022-12-27T18:46:47.214Z,55.15
2022-12-27T18:49:57.213Z,59.15
2022-12-27T18:53:02.903Z,63.00
2022-12-27T18:56:24.496Z,70.00
2022-12-27T18:59:39.983Z,71.80
2022-12-27T19:02:51.100Z,91.97
2022-12-27T19:06:16.629Z,87.17
2022-12-27T19:09:29.295Z,81.15
2022-12-27T19:15:58.201Z,106.63
2022-12-27T19:19:09.183Z,89.97
2022-12-27T19:22:15.355Z,76.42
2022-12-27T19:25:41.358Z,65.85
2022-12-27T19:31:55.418Z,57.00
2022-12-27T19:35:07.303Z,51.42
2022-12-27T19:38:13.139Z,46.83
2022-12-27T19:41:17.756Z,48.17
2022-12-27T19:44:27.383Z,46.60
2022-12-27T19:47:33.517Z,41.02
2022-12-27T19:50:39.119Z,42.35
2022-12-27T19:53:57.670Z,44.25
2022-12-27T19:57:01.338Z,53.17
2022-12-27T20:00:12.406Z,40.38
2022-12-27T20:03:13.839Z,44.03
2022-12-27T20:06:24.041Z,45.90
2022-12-27T20:09:28.466Z,48.45
2022-12-27T20:12:35.268Z,43.60
2022-12-27T20:15:41.789Z,48.28
2022-12-27T20:18:48.361Z,44.75
2022-12-27T20:21:55.090Z,45.85
2022-12-27T20:25:01.574Z,48.23
2022-12-27T20:28:07.668Z,45.28
2022-12-27T20:31:08.358Z,40.28
2022-12-27T20:34:17.233Z,46.05
2022-12-27T20:37:24.907Z,45.98
2022-12-27T20:40:31.424Z,43.50
2022-12-27T20:43:37.707Z,39.63
2022-12-27T20:46:44.666Z,42.38
2022-12-27T20:49:52.887Z,34.00
2022-12-27T20:52:59.467Z,35.88
2022-12-27T20:56:16.360Z,29.15
2022-12-27T20:59:23.591Z,27.50
2022-12-27T21:02:30.318Z,21.65
2022-12-27T21:05:39.608Z,18.30
2022-12-27T21:08:55.971Z,18.65
2022-12-27T21:11:57.385Z,15.13
2022-12-27T21:15:05.354Z,16.97
2022-12-27T21:18:14.285Z,11.83
2022-12-27T21:21:21.622Z,11.73
2022-12-27T21:24:28.196Z,12.45
2022-12-27T21:27:35.534Z,10.03
2022-12-27T21:30:40.875Z,8.08
2022-12-27T21:33:47.199Z,8.10
2022-12-27T21:36:54.180Z,6.37
2022-12-27T21:40:00.691Z,7.72
2022-12-27T21:43:07.710Z,4.87
2022-12-27T21:46:13.701Z,4.35
2022-12-27T21:49:28.165Z,2.65
2022-12-27T21:52:33.524Z,2.77
2022-12-27T21:55:39.797Z,2.80
2022-12-27T21:58:47.980Z,2.47
2022-12-27T22:01:56.274Z,2.72
2022-12-27T22:05:04.391Z,2.65
2022-12-27T22:08:12.424Z,3.22
2022-12-27T22:11:18.096Z,1.92
2022-12-27T22:14:26.013Z,2.60
2022-12-27T22:17:32.753Z,2.55
2022-12-27T22:20:45.113Z,2.27
2022-12-27T22:23:50.783Z,2.50
2022-12-27T22:26:57.240Z,2.37
2022-12-27T22:30:03.838Z,3.00
2022-12-27T22:33:09.729Z,3.33
2022-12-27T22:36:21.027Z,4.53
2022-12-27T22:39:26.860Z,5.15
2022-12-27T22:42:32.738Z,3.67
2022-12-27T22:45:37.682Z,3.47
2022-12-27T22:48:45.360Z,1.80
2022-12-27T22:51:52.303Z,2.52
2022-12-27T22:55:04.327Z,2.00
2022-12-27T22:58:07.836Z,2.80
2022-12-27T23:01:14.712Z,2.55
2022-12-27T23:04:21.897Z,8.30
2022-12-27T23:08:05.146Z,8.43
2022-12-27T23:10:35.916Z,5.40
2022-12-27T23:13:43.287Z,5.65
2022-12-27T23:16:59.674Z,4.47
2022-12-27T23:20:06.309Z,5.90
2022-12-27T23:23:12.670Z,4.78
2022-12-27T23:26:25.456Z,6.72
2022-12-27T23:29:31.387Z,6.60
2022-12-27T23:32:36.914Z,3.33
2022-12-27T23:35:42.932Z,6.35
2022-12-27T23:38:48.404Z,6.35
2022-12-27T23:41:53.482Z,5.87
2022-12-27T23:44:59.175Z,10.05
2022-12-27T23:48:04.498Z,7.80
2022-12-27T23:51:11.219Z,7.10
2022-12-27T23:54:16.109Z,8.40
2022-12-27T23:57:22.830Z,7.55
